Time;durP1;ratioP1;P1;durP2;ratioP2;P2;SDS_P1;SDS_P2;PMS_P1;PMS_P2;Temp;Humidity;BMP_temperature;BMP_pressure;BME280_temperature;BME280_humidity;BME280_pressure;Samples;Min_cycle;Max_cycle;Signal;HPM_P1;HPM_P2
2022/08/27 00:01:29;;;;;;;30.98;20.60;;;20.20;99.90;;;;;;5051797;28;20250;-60
2022/08/27 00:03:55;;;;;;;32.90;21.80;;;20.20;99.90;;;;;;5053304;28;20228;-60
2022/08/27 00:06:22;;;;;;;34.05;23.23;;;20.10;99.90;;;;;;5053099;28;20636;-59
2022/08/27 00:08:49;;;;;;;33.00;21.88;;;20.00;99.90;;;;;;5054067;28;20185;-60
2022/08/27 00:11:16;;;;;;;33.38;21.95;;;20.00;99.90;;;;;;5053701;28;20197;-59
2022/08/27 00:13:43;;;;;;;31.45;21.75;;;20.00;99.90;;;;;;5053864;28;20254;-60
2022/08/27 00:16:10;;;;;;;29.77;20.40;;;20.00;99.90;;;;;;5053522;28;20224;-59
2022/08/27 00:18:37;;;;;;;29.00;20.75;;;20.00;99.90;;;;;;5053487;28;20177;-59
2022/08/27 00:21:03;;;;;;;33.50;21.40;;;20.00;99.90;;;;;;5053386;28;20185;-59
2022/08/27 00:23:29;;;;;;;30.50;21.00;;;20.00;99.90;;;;;;5054227;28;20165;-59
2022/08/27 00:25:54;;;;;;;31.38;20.65;;;20.10;99.90;;;;;;5053466;28;20644;-59
2022/08/27 00:28:20;;;;;;;31.55;21.17;;;20.10;99.90;;;;;;5053418;28;20235;-59
2022/08/27 00:30:46;;;;;;;31.63;20.95;;;20.10;99.90;;;;;;5053906;28;20196;-59
2022/08/27 00:33:12;;;;;;;33.35;22.42;;;20.10;99.90;;;;;;5053078;28;20186;-59
2022/08/27 00:35:38;;;;;;;31.65;19.90;;;20.10;99.90;;;;;;5053144;28;20202;-59
2022/08/27 00:38:05;;;;;;;28.85;20.02;;;20.10;99.90;;;;;;5054293;28;20177;-59
2022/08/27 00:40:32;;;;;;;27.23;19.58;;;20.00;99.90;;;;;;5053414;28;20194;-58
2022/08/27 00:43:01;;;;;;;31.42;20.75;;;19.90;99.90;;;;;;5053065;28;20720;-59
2022/08/27 00:45:28;;;;;;;36.22;23.25;;;19.90;99.90;;;;;;5053268;28;20649;-59
2022/08/27 00:47:57;;;;;;;27.10;19.20;;;19.80;99.90;;;;;;5052888;28;20287;-59
2022/08/27 00:50:47;;;;;;;29.02;18.95;;;19.80;99.90;;;;;;5053185;28;20637;-59
2022/08/27 00:53:17;;;;;;;29.40;20.25;;;19.80;99.90;;;;;;5053038;28;20203;-59
2022/08/27 00:55:46;;;;;;;56.20;37.22;;;19.70;99.90;;;;;;5052668;28;20205;-59
2022/08/27 00:58:22;;;;;;;75.95;46.42;;;19.70;99.90;;;;;;5041813;28;20181;-59
2022/08/27 01:00:47;;;;;;;33.03;22.13;;;19.70;99.90;;;;;;5052090;28;20188;-59
2022/08/27 01:03:14;;;;;;;34.47;21.52;;;19.70;99.90;;;;;;5052631;28;20185;-59
2022/08/27 01:05:41;;;;;;;35.03;22.10;;;19.70;99.90;;;;;;5053014;28;20212;-59
2022/08/27 01:08:13;;;;;;;36.08;22.55;;;19.70;99.90;;;;;;5052602;28;20184;-59
2022/08/27 01:10:40;;;;;;;34.28;20.98;;;19.70;99.90;;;;;;5052858;28;20201;-59
2022/08/27 01:13:19;;;;;;;32.63;21.35;;;19.70;99.90;;;;;;5052657;28;20178;-59
2022/08/27 01:15:46;;;;;;;34.28;22.08;;;19.70;99.90;;;;;;5052265;28;20703;-59
2022/08/27 01:18:13;;;;;;;32.22;20.95;;;19.60;99.90;;;;;;5052185;28;20181;-59
2022/08/27 01:20:47;;;;;;;36.15;21.50;;;19.60;99.90;;;;;;5052855;28;20256;-59
2022/08/27 01:23:43;;;;;;;31.10;21.25;;;19.60;99.90;;;;;;5052734;28;20185;-59
2022/08/27 01:26:11;;;;;;;37.30;21.65;;;19.70;99.90;;;;;;5052386;28;20186;-59
2022/08/27 01:28:37;;;;;;;29.67;21.13;;;19.70;99.90;;;;;;5052271;28;20185;-59
2022/08/27 01:31:06;;;;;;;35.38;22.20;;;19.70;99.90;;;;;;5052204;28;20540;-59
2022/08/27 01:33:31;;;;;;;31.88;21.45;;;19.70;99.90;;;;;;5049774;28;20507;-59
2022/08/27 01:35:57;;;;;;;36.25;21.98;;;19.70;99.90;;;;;;5052292;28;20220;-59
2022/08/27 01:38:23;;;;;;;40.13;24.45;;;19.60;99.90;;;;;;5051934;28;20185;-59
2022/08/27 01:40:49;;;;;;;37.15;24.13;;;19.70;99.90;;;;;;5051656;28;20196;-59
2022/08/27 01:43:15;;;;;;;35.70;22.80;;;19.60;99.90;;;;;;5052552;28;20182;-59
2022/08/27 01:45:47;;;;;;;32.10;20.90;;;19.60;99.90;;;;;;5052132;28;20174;-59
2022/08/27 01:48:13;;;;;;;34.30;21.77;;;19.60;99.90;;;;;;5051435;28;20706;-60
2022/08/27 01:50:40;;;;;;;31.45;21.15;;;19.60;99.90;;;;;;5049948;28;20181;-59
2022/08/27 01:53:14;;;;;;;37.80;24.33;;;19.60;99.90;;;;;;5051846;28;20188;-59
2022/08/27 01:55:42;;;;;;;44.05;27.20;;;19.60;99.90;;;;;;5051658;28;20251;-59
2022/08/27 01:58:08;;;;;;;45.55;29.58;;;19.60;99.90;;;;;;5052066;28;20202;-59
2022/08/27 02:00:39;;;;;;;38.65;25.98;;;19.60;99.90;;;;;;5051884;28;20178;-60
2022/08/27 02:03:06;;;;;;;33.97;22.70;;;19.70;99.90;;;;;;5051584;28;20563;-59
2022/08/27 02:05:32;;;;;;;34.60;23.25;;;19.70;99.90;;;;;;5050664;28;20566;-59
2022/08/27 02:07:58;;;;;;;32.03;22.13;;;19.70;99.90;;;;;;5050909;28;20200;-59
2022/08/27 02:10:27;;;;;;;31.48;21.45;;;19.70;99.90;;;;;;5051602;28;20177;-60
2022/08/27 02:12:52;;;;;;;33.95;21.42;;;19.80;99.90;;;;;;5051431;28;20181;-60
2022/08/27 02:15:18;;;;;;;32.63;22.20;;;19.80;99.90;;;;;;5051710;28;20205;-60
2022/08/27 02:17:45;;;;;;;32.55;21.55;;;19.80;99.90;;;;;;5051204;28;20181;-60
2022/08/27 02:20:11;;;;;;;32.42;21.63;;;19.80;99.90;;;;;;5051493;28;20811;-59
2022/08/27 02:22:37;;;;;;;34.85;21.95;;;19.70;99.90;;;;;;5051803;28;20178;-59
2022/08/27 02:25:05;;;;;;;35.20;21.95;;;19.70;99.90;;;;;;5051269;28;20205;-60
2022/08/27 02:27:31;;;;;;;34.65;22.92;;;19.70;99.90;;;;;;5050927;28;20211;-59
2022/08/27 02:29:57;;;;;;;33.85;21.40;;;19.70;99.90;;;;;;5050993;28;20272;-59
2022/08/27 02:32:22;;;;;;;44.95;26.63;;;19.80;99.90;;;;;;5051115;28;20186;-59
2022/08/27 02:34:48;;;;;;;43.03;25.67;;;19.80;99.90;;;;;;5051129;28;20178;-60
2022/08/27 02:37:14;;;;;;;47.50;29.95;;;19.80;99.90;;;;;;5051191;28;20213;-59
2022/08/27 02:39:41;;;;;;;45.30;29.30;;;19.90;99.90;;;;;;5051166;28;20283;-59
2022/08/27 02:42:07;;;;;;;42.95;28.17;;;19.90;99.90;;;;;;5051260;28;20324;-60
2022/08/27 02:44:34;;;;;;;37.55;25.15;;;19.90;99.90;;;;;;5050635;28;20189;-59
2022/08/27 02:47:01;;;;;;;35.10;22.95;;;19.90;99.90;;;;;;5050764;28;20188;-59
2022/08/27 02:49:28;;;;;;;37.45;21.33;;;19.90;99.90;;;;;;5051243;28;20545;-59
2022/08/27 02:51:56;;;;;;;37.22;21.58;;;19.90;99.90;;;;;;5050485;28;20216;-59
2022/08/27 02:54:22;;;;;;;31.60;21.10;;;19.90;99.90;;;;;;5051070;28;20223;-59
2022/08/27 02:56:50;;;;;;;34.58;21.65;;;19.80;99.90;;;;;;5051109;28;20223;-60
2022/08/27 02:59:16;;;;;;;32.33;22.05;;;19.70;99.90;;;;;;5051019;28;20537;-59
2022/08/27 03:01:41;;;;;;;34.75;22.35;;;19.70;99.90;;;;;;5050799;28;20253;-59
2022/08/27 03:04:07;;;;;;;35.53;22.88;;;19.70;99.90;;;;;;5050545;28;20220;-59
2022/08/27 03:06:32;;;;;;;31.50;21.88;;;19.60;99.90;;;;;;5051248;28;20264;-59
2022/08/27 03:08:58;;;;;;;33.67;22.40;;;19.60;99.90;;;;;;5050856;28;20180;-60
2022/08/27 03:11:24;;;;;;;34.97;21.45;;;19.60;99.90;;;;;;5050660;28;20185;-59
2022/08/27 03:13:50;;;;;;;31.65;20.52;;;19.60;99.90;;;;;;5050727;28;20546;-60
2022/08/27 03:16:16;;;;;;;29.63;20.30;;;19.70;99.90;;;;;;5050963;28;20274;-60
2022/08/27 03:18:42;;;;;;;30.42;20.50;;;19.60;99.90;;;;;;5049238;28;20264;-60
2022/08/27 03:21:07;;;;;;;33.58;20.38;;;19.70;99.90;;;;;;5053296;28;20174;-59
2022/08/27 03:23:34;;;;;;;27.83;19.25;;;19.70;99.90;;;;;;5055155;28;20231;-59
2022/08/27 03:26:03;;;;;;;30.83;19.95;;;19.60;99.90;;;;;;5054284;28;20196;-60
2022/08/27 03:28:33;;;;;;;33.78;19.73;;;19.60;99.90;;;;;;5052988;28;20173;-59
2022/08/27 03:31:04;;;;;;;31.30;20.02;;;19.70;99.90;;;;;;5054559;28;20659;-60
2022/08/27 03:33:33;;;;;;;29.98;19.80;;;19.70;99.90;;;;;;5054591;28;20217;-59
2022/08/27 03:35:59;;;;;;;33.55;19.63;;;19.70;99.90;;;;;;5054197;28;20223;-60
2022/08/27 03:38:25;;;;;;;33.67;20.13;;;19.60;99.90;;;;;;5054728;28;20511;-60
2022/08/27 03:40:51;;;;;;;31.13;20.40;;;19.60;99.90;;;;;;5054210;28;20231;-60
2022/08/27 03:43:19;;;;;;;33.60;20.05;;;19.50;99.90;;;;;;5054584;28;20237;-60
2022/08/27 03:45:45;;;;;;;31.40;20.60;;;19.50;99.90;;;;;;5054491;28;20188;-60
2022/08/27 03:48:12;;;;;;;34.63;20.67;;;19.50;99.90;;;;;;5053884;28;20190;-60
2022/08/27 03:50:39;;;;;;;34.70;20.67;;;19.50;99.90;;;;;;5054149;28;20169;-59
2022/08/27 03:53:05;;;;;;;31.13;20.05;;;19.50;99.90;;;;;;5053229;28;20185;-60
2022/08/27 03:55:30;;;;;;;30.00;19.80;;;19.50;99.90;;;;;;5053997;28;20270;-60
2022/08/27 03:57:56;;;;;;;32.10;19.63;;;19.50;99.90;;;;;;5054041;28;20550;-60
2022/08/27 04:00:23;;;;;;;34.22;21.23;;;19.50;99.90;;;;;;5054268;28;20177;-59
2022/08/27 04:02:49;;;;;;;32.05;20.67;;;19.50;99.90;;;;;;5053208;28;20229;-60
2022/08/27 04:05:15;;;;;;;33.75;20.52;;;19.50;99.90;;;;;;5054118;28;20238;-60
2022/08/27 04:07:42;;;;;;;32.30;20.60;;;19.40;99.90;;;;;;5054004;28;20192;-60
2022/08/27 04:10:09;;;;;;;32.50;21.15;;;19.40;99.90;;;;;;5053880;28;20731;-59
2022/08/27 04:12:35;;;;;;;33.13;21.00;;;19.30;99.90;;;;;;5053450;28;20185;-59
2022/08/27 04:15:01;;;;;;;34.72;21.95;;;19.20;99.90;;;;;;5053519;28;20174;-59
2022/08/27 04:17:27;;;;;;;33.90;20.50;;;19.20;99.90;;;;;;5053875;28;20181;-59
2022/08/27 04:19:53;;;;;;;33.83;21.30;;;19.10;99.90;;;;;;5053206;28;20272;-59
2022/08/27 04:22:19;;;;;;;34.47;20.83;;;19.20;99.90;;;;;;5053587;28;20312;-60
2022/08/27 04:24:46;;;;;;;33.80;21.08;;;19.20;99.90;;;;;;5053726;28;20193;-59
2022/08/27 04:27:13;;;;;;;34.08;22.35;;;19.20;99.90;;;;;;5052893;28;20253;-59
2022/08/27 04:29:39;;;;;;;33.47;21.90;;;19.20;99.90;;;;;;5053656;28;20882;-59
2022/08/27 04:32:05;;;;;;;35.10;22.85;;;19.20;99.90;;;;;;5052503;28;20692;-59
2022/08/27 04:34:31;;;;;;;36.65;22.42;;;19.20;99.90;;;;;;5053817;28;20264;-59
2022/08/27 04:36:57;;;;;;;37.00;23.02;;;19.20;99.90;;;;;;5052986;28;20243;-60
2022/08/27 04:39:28;;;;;;;33.33;21.20;;;19.20;99.90;;;;;;5053296;28;20177;-59
2022/08/27 04:41:56;;;;;;;34.03;21.83;;;19.20;99.90;;;;;;5053624;28;20722;-60
2022/08/27 04:44:23;;;;;;;34.90;21.00;;;19.20;99.90;;;;;;5053504;28;20177;-59
2022/08/27 04:46:53;;;;;;;33.53;21.08;;;19.20;99.90;;;;;;5053132;28;20189;-59
2022/08/27 04:49:18;;;;;;;31.88;21.17;;;19.20;99.90;;;;;;5053213;28;20307;-60
2022/08/27 04:51:44;;;;;;;29.52;20.08;;;19.30;99.90;;;;;;5053109;28;20257;-60
2022/08/27 04:54:10;;;;;;;34.60;21.17;;;19.30;99.90;;;;;;5053386;28;20534;-59
2022/08/27 04:56:36;;;;;;;31.48;20.48;;;19.30;99.90;;;;;;5052983;28;20206;-59
2022/08/27 04:59:04;;;;;;;33.13;22.25;;;19.30;99.90;;;;;;5053159;28;20188;-60
2022/08/27 05:01:31;;;;;;;31.88;21.23;;;19.30;99.90;;;;;;5052273;28;20349;-59
2022/08/27 05:03:57;;;;;;;32.03;21.00;;;19.30;99.90;;;;;;5052699;28;20189;-60
2022/08/27 05:06:23;;;;;;;35.60;22.42;;;19.30;99.90;;;;;;5052970;28;20189;-59
2022/08/27 05:08:50;;;;;;;32.95;21.98;;;19.30;99.90;;;;;;5052481;28;20186;-59
2022/08/27 05:11:18;;;;;;;33.15;21.77;;;19.30;99.90;;;;;;5051619;28;20188;-59
2022/08/27 05:13:44;;;;;;;33.63;21.55;;;19.30;99.90;;;;;;5052644;28;20178;-59
2022/08/27 05:16:14;;;;;;;33.03;21.65;;;19.30;99.90;;;;;;5052430;28;20227;-59
2022/08/27 05:18:41;;;;;;;35.60;22.23;;;19.30;99.90;;;;;;5052453;28;20273;-60
2022/08/27 05:21:07;;;;;;;32.95;21.40;;;19.30;99.90;;;;;;5052576;28;20576;-59
2022/08/27 05:23:34;;;;;;;35.22;22.95;;;19.30;99.90;;;;;;5052647;28;20637;-59
2022/08/27 05:26:00;;;;;;;30.38;20.85;;;19.40;99.90;;;;;;5052364;28;20708;-59
2022/08/27 05:28:27;;;;;;;32.50;21.80;;;19.50;99.90;;;;;;5052113;28;20191;-59
2022/08/27 05:31:03;;;;;;;37.22;22.65;;;19.50;99.90;;;;;;5051876;28;20185;-59
2022/08/27 05:33:29;;;;;;;33.15;21.98;;;19.50;99.90;;;;;;5043111;28;20173;-60
2022/08/27 05:35:56;;;;;;;35.67;21.92;;;19.50;99.90;;;;;;5052310;28;20665;-60
2022/08/27 05:38:23;;;;;;;32.40;20.42;;;19.50;99.90;;;;;;5052463;28;20209;-59
2022/08/27 05:40:50;;;;;;;32.85;20.88;;;19.50;99.90;;;;;;5052501;28;20571;-59
2022/08/27 05:43:17;;;;;;;32.72;21.48;;;19.50;99.90;;;;;;5051331;28;20258;-59
2022/08/27 05:45:45;;;;;;;34.35;21.85;;;19.50;99.90;;;;;;5052139;28;20312;-60
2022/08/27 05:48:10;;;;;;;38.35;21.58;;;19.50;99.90;;;;;;5052354;28;20186;-59
2022/08/27 05:50:41;;;;;;;36.70;22.40;;;19.50;99.90;;;;;;5052693;28;20181;-60
2022/08/27 05:53:08;;;;;;;35.60;23.27;;;19.50;99.90;;;;;;5052384;28;20203;-59
2022/08/27 05:55:38;;;;;;;37.03;22.85;;;19.50;99.90;;;;;;5052133;28;20201;-59
2022/08/27 05:58:04;;;;;;;34.38;21.77;;;19.50;99.90;;;;;;5051723;28;20268;-60
2022/08/27 06:03:14;;;;;;;34.00;21.55;;;19.50;99.90;;;;;;5051434;28;20200;-59
2022/08/27 06:05:40;;;;;;;35.83;23.10;;;19.50;99.90;;;;;;5051671;28;20544;-60
2022/08/27 06:08:05;;;;;;;31.90;21.63;;;19.60;99.90;;;;;;5051090;28;20178;-62
2022/08/27 06:10:31;;;;;;;33.35;21.15;;;19.70;99.90;;;;;;5051939;28;20706;-61
2022/08/27 06:12:56;;;;;;;31.88;20.60;;;19.70;99.90;;;;;;5052086;28;20656;-59
2022/08/27 06:15:22;;;;;;;33.55;20.88;;;19.80;99.90;;;;;;5051003;28;20639;-62
2022/08/27 06:17:47;;;;;;;31.45;19.70;;;19.80;99.90;;;;;;5052078;28;20193;-60
2022/08/27 06:20:13;;;;;;;34.38;20.02;;;19.80;99.90;;;;;;5050243;28;20181;-59
2022/08/27 06:22:39;;;;;;;31.67;20.58;;;19.90;99.90;;;;;;5051475;28;20193;-59
2022/08/27 06:25:04;;;;;;;29.20;19.85;;;19.90;99.90;;;;;;5051469;28;20231;-61
2022/08/27 06:27:30;;;;;;;34.45;21.00;;;19.90;99.90;;;;;;5051789;28;20177;-59
2022/08/27 06:29:55;;;;;;;32.35;21.17;;;19.90;99.90;;;;;;5051792;28;20206;-61
2022/08/27 06:32:22;;;;;;;29.73;20.10;;;20.00;99.90;;;;;;5051966;28;20181;-59
2022/08/27 06:34:48;;;;;;;31.45;20.63;;;20.10;99.90;;;;;;5050671;28;20217;-58
2022/08/27 06:37:14;;;;;;;32.95;20.35;;;20.20;99.90;;;;;;5051339;28;20248;-59
2022/08/27 06:39:40;;;;;;;30.75;19.88;;;20.30;99.90;;;;;;5050956;28;20181;-59
2022/08/27 06:42:09;;;;;;;31.73;21.48;;;20.30;99.90;;;;;;5051701;28;20185;-58
2022/08/27 06:44:35;;;;;;;32.55;21.38;;;20.40;99.90;;;;;;5051724;28;20780;-58
2022/08/27 06:47:02;;;;;;;34.13;21.05;;;20.40;99.90;;;;;;5050382;28;20261;-59
2022/08/27 06:49:28;;;;;;;31.02;19.80;;;20.50;99.90;;;;;;5051616;28;20686;-60
2022/08/27 06:51:54;;;;;;;33.70;21.50;;;20.70;99.90;;;;;;5050527;28;20173;-59
2022/08/27 06:54:20;;;;;;;30.27;19.92;;;20.80;99.90;;;;;;5050826;28;20181;-60
2022/08/27 06:56:47;;;;;;;36.45;22.45;;;21.00;99.90;;;;;;5051038;28;20274;-60
2022/08/27 06:59:16;;;;;;;33.85;21.67;;;21.10;99.90;;;;;;5050611;28;20178;-60
2022/08/27 07:01:46;;;;;;;31.20;19.98;;;21.30;99.90;;;;;;5050196;28;20227;-60
2022/08/27 07:04:17;;;;;;;30.90;19.13;;;21.30;99.90;;;;;;5051166;28;20177;-60
2022/08/27 07:06:43;;;;;;;32.65;20.77;;;21.30;99.90;;;;;;5051206;28;20715;-61
2022/08/27 07:09:09;;;;;;;28.77;18.48;;;21.20;99.90;;;;;;5050306;28;20177;-61
2022/08/27 07:11:35;;;;;;;26.67;17.35;;;21.30;99.90;;;;;;5049478;28;20185;-60
2022/08/27 07:14:01;;;;;;;209.15;146.30;;;21.20;99.90;;;;;;5050824;28;20552;-60
2022/08/27 07:16:28;;;;;;;49.42;33.65;;;21.20;99.90;;;;;;5050926;28;20263;-60
2022/08/27 07:18:56;;;;;;;32.50;20.90;;;21.20;99.90;;;;;;5050760;28;20185;-60
2022/08/27 07:21:22;;;;;;;22.38;16.30;;;21.10;99.90;;;;;;5050320;28;20289;-61
2022/08/27 07:23:50;;;;;;;25.15;16.42;;;21.10;99.90;;;;;;5050483;28;20223;-61
2022/08/27 07:26:16;;;;;;;24.38;16.67;;;21.10;99.90;;;;;;5051045;28;20178;-60
2022/08/27 07:28:43;;;;;;;23.02;16.50;;;21.10;99.90;;;;;;5051082;28;20239;-60
2022/08/27 07:31:11;;;;;;;23.10;15.27;;;21.10;99.90;;;;;;5050807;28;20529;-61
2022/08/27 07:33:38;;;;;;;22.05;14.25;;;21.20;99.90;;;;;;5051086;28;20609;-60
2022/08/27 07:36:05;;;;;;;19.23;14.70;;;21.20;99.90;;;;;;5050423;28;20249;-60
2022/08/27 07:38:31;;;;;;;24.08;15.60;;;21.30;99.90;;;;;;5050831;28;20188;-61
2022/08/27 07:40:57;;;;;;;23.98;14.63;;;21.30;99.90;;;;;;5048841;28;20661;-61
2022/08/27 07:46:07;;;;;;;22.95;14.93;;;21.40;99.90;;;;;;5050357;28;20208;-60
2022/08/27 07:48:33;;;;;;;23.40;15.25;;;21.50;99.90;;;;;;5050562;28;20633;-61
2022/08/27 07:51:03;;;;;;;25.73;16.42;;;21.50;99.90;;;;;;5050427;28;20548;-61
2022/08/27 07:53:30;;;;;;;20.08;15.13;;;21.50;99.90;;;;;;5050606;28;20551;-61
2022/08/27 07:56:05;;;;;;;20.13;15.45;;;21.50;99.90;;;;;;5050795;28;20209;-61
2022/08/27 07:58:31;;;;;;;23.58;15.00;;;21.60;99.90;;;;;;5050802;28;20235;-61
2022/08/27 08:00:57;;;;;;;21.67;14.10;;;21.60;99.90;;;;;;5050240;28;20213;-60
2022/08/27 08:03:23;;;;;;;21.10;14.70;;;21.60;99.90;;;;;;5050297;28;20197;-61
2022/08/27 08:05:51;;;;;;;19.58;14.93;;;21.70;99.90;;;;;;5065358;28;20169;-61
2022/08/27 08:08:20;;;;;;;23.40;15.65;;;21.80;99.90;;;;;;5073033;28;20271;-61
2022/08/27 08:10:47;;;;;;;21.70;14.30;;;21.80;99.90;;;;;;5054063;28;20227;-61
2022/08/27 08:13:13;;;;;;;25.00;15.07;;;21.90;99.90;;;;;;5054463;28;20192;-61
2022/08/27 08:15:40;;;;;;;24.33;15.10;;;22.00;99.90;;;;;;5054234;28;20205;-60
2022/08/27 08:18:05;;;;;;;22.15;13.45;;;22.00;99.90;;;;;;5054285;28;20272;-61
2022/08/27 08:20:31;;;;;;;23.27;14.43;;;22.10;99.90;;;;;;5054509;28;20256;-61
2022/08/27 08:22:57;;;;;;;22.00;14.25;;;22.10;99.90;;;;;;5053924;28;20660;-61
2022/08/27 08:25:22;;;;;;;22.17;13.73;;;22.20;99.90;;;;;;5053902;28;20284;-60
2022/08/27 08:27:48;;;;;;;21.85;13.55;;;22.20;99.90;;;;;;5053334;28;20185;-61
2022/08/27 08:30:14;;;;;;;20.13;13.27;;;22.30;99.90;;;;;;5053564;28;20175;-61
2022/08/27 08:32:39;;;;;;;18.08;13.23;;;22.40;99.90;;;;;;5053973;28;20641;-60
2022/08/27 08:35:06;;;;;;;15.18;12.23;;;22.50;99.90;;;;;;5053827;28;20184;-61
2022/08/27 08:37:32;;;;;;;21.77;13.18;;;22.60;99.90;;;;;;5053958;28;20205;-61
2022/08/27 08:39:58;;;;;;;30.42;21.02;;;22.70;99.90;;;;;;5053643;28;20191;-65
2022/08/27 08:42:40;;;;;;;25.35;15.35;;;22.80;99.90;;;;;;5053298;28;20185;-61
2022/08/27 08:45:06;;;;;;;26.95;19.08;;;23.00;99.90;;;;;;5053358;28;20544;-61
2022/08/27 08:47:55;;;;;;;22.02;15.00;;;23.00;99.90;;;;;;5053351;28;20488;-61
2022/08/27 08:50:27;;;;;;;26.67;15.85;;;23.10;99.90;;;;;;5045356;28;20185;-59
2022/08/27 08:53:05;;;;;;;29.10;18.67;;;23.10;99.90;;;;;;5052460;28;20188;-61
2022/08/27 08:55:41;;;;;;;19.30;12.88;;;23.10;99.90;;;;;;5053746;28;20271;-61
2022/08/27 08:58:13;;;;;;;15.32;11.90;;;23.10;99.90;;;;;;5045132;28;20177;-60
2022/08/27 09:00:42;;;;;;;16.92;12.27;;;23.00;99.90;;;;;;5049843;28;20259;-61
2022/08/27 09:03:13;;;;;;;19.45;13.32;;;22.90;99.90;;;;;;5052032;28;21828;-60
2022/08/27 09:05:46;;;;;;;18.88;13.80;;;22.70;99.90;;;;;;5053197;28;20185;-61
2022/08/27 09:08:44;;;;;;;18.58;13.20;;;22.60;99.90;;;;;;5052488;28;20177;-60
2022/08/27 09:11:23;;;;;;;22.27;13.00;;;22.50;99.90;;;;;;5014227;28;20713;-61
2022/08/27 09:13:54;;;;;;;19.38;14.10;;;22.50;99.90;;;;;;5051120;28;20648;-61
2022/08/27 09:16:19;;;;;;;25.13;13.30;;;22.60;99.90;;;;;;5053113;28;20300;-60
2022/08/27 09:18:45;;;;;;;18.08;12.82;;;22.60;99.90;;;;;;5051676;28;20650;-61
2022/08/27 09:21:48;;;;;;;18.55;12.05;;;22.70;99.90;;;;;;5052998;28;20193;-60
2022/08/27 09:24:34;;;;;;;18.65;13.35;;;22.80;99.90;;;;;;5052089;28;20636;-60
2022/08/27 09:27:00;;;;;;;17.38;12.70;;;22.80;99.90;;;;;;5052696;28;20188;-60
2022/08/27 09:29:28;;;;;;;21.38;13.57;;;22.90;99.90;;;;;;5052611;28;20178;-61
2022/08/27 09:31:56;;;;;;;18.88;12.75;;;23.00;99.90;;;;;;5052434;28;20182;-60
2022/08/27 09:34:24;;;;;;;20.60;13.20;;;23.20;99.90;;;;;;5052793;28;20268;-61
2022/08/27 09:36:49;;;;;;;19.90;12.68;;;23.30;99.90;;;;;;5052467;28;20212;-59
2022/08/27 09:39:15;;;;;;;16.15;12.13;;;23.60;99.90;;;;;;5052743;28;20181;-60
2022/08/27 09:41:47;;;;;;;19.23;11.90;;;23.60;99.90;;;;;;5051867;28;20185;-61
2022/08/27 09:44:17;;;;;;;20.67;12.38;;;23.70;99.90;;;;;;5050651;28;20700;-60
2022/08/27 09:46:58;;;;;;;21.00;13.77;;;23.70;99.90;;;;;;5051902;28;20192;-61
2022/08/27 09:49:25;;;;;;;16.58;12.80;;;23.80;99.90;;;;;;5051547;28;20177;-61
2022/08/27 09:51:52;;;;;;;21.92;13.43;;;23.70;99.90;;;;;;5052691;28;20596;-60
2022/08/27 09:54:41;;;;;;;19.77;13.13;;;23.70;99.90;;;;;;5051869;28;20718;-60
2022/08/27 09:57:08;;;;;;;22.77;12.98;;;23.70;99.90;;;;;;5051722;28;20300;-61
2022/08/27 09:59:37;;;;;;;17.98;12.38;;;23.70;99.90;;;;;;5052195;28;20177;-61
2022/08/27 10:02:13;;;;;;;19.23;14.00;;;23.80;99.90;;;;;;5051617;28;20331;-61
2022/08/27 10:04:44;;;;;;;20.80;15.27;;;23.80;99.90;;;;;;5052032;28;20169;-60
2022/08/27 10:07:15;;;;;;;21.08;13.93;;;23.80;99.90;;;;;;5051955;28;20180;-60
2022/08/27 10:09:50;;;;;;;18.10;13.18;;;23.90;99.90;;;;;;5050507;28;20187;-61
2022/08/27 10:12:57;;;;;;;19.25;12.35;;;24.00;99.90;;;;;;5052007;28;20204;-59
2022/08/27 10:15:28;;;;;;;16.35;11.75;;;24.20;99.90;;;;;;5029732;28;20200;-61
2022/08/27 10:18:25;;;;;;;18.98;13.10;;;24.20;99.90;;;;;;5051323;28;20231;-62
2022/08/27 10:21:12;;;;;;;19.60;11.88;;;24.20;99.90;;;;;;5043248;28;20196;-62
2022/08/27 10:24:15;;;;;;;18.75;12.20;;;24.00;99.90;;;;;;5036342;28;20174;-62
2022/08/27 10:27:20;;;;;;;18.50;11.88;;;23.90;99.90;;;;;;5048678;28;20185;-62
2022/08/27 10:30:00;;;;;;;21.40;12.88;;;23.90;99.90;;;;;;5031568;28;20778;-61
2022/08/27 10:33:02;;;;;;;16.98;12.68;;;23.80;99.90;;;;;;5051667;28;20189;-61
2022/08/27 10:35:46;;;;;;;21.38;13.88;;;23.60;99.90;;;;;;5051027;28;20181;-61
2022/08/27 10:38:22;;;;;;;18.15;12.82;;;23.60;99.90;;;;;;5051728;28;20195;-61
2022/08/27 10:40:57;;;;;;;19.08;12.25;;;23.60;99.90;;;;;;5047576;28;20181;-61
2022/08/27 10:43:33;;;;;;;20.13;12.85;;;23.60;99.90;;;;;;5051994;28;20181;-61
2022/08/27 10:46:17;;;;;;;17.48;13.27;;;23.60;99.90;;;;;;5051366;28;20172;-61
2022/08/27 10:48:49;;;;;;;16.52;12.85;;;23.80;99.90;;;;;;5051798;28;20180;-62
2022/08/27 10:51:31;;;;;;;16.45;11.73;;;24.00;99.90;;;;;;5051543;28;20275;-61
2022/08/27 10:54:09;;;;;;;17.02;11.77;;;24.20;99.90;;;;;;5051363;28;20178;-61
2022/08/27 10:56:42;;;;;;;19.65;12.85;;;24.40;99.90;;;;;;5051715;28;20251;-61
2022/08/27 10:59:20;;;;;;;16.95;12.23;;;24.50;99.90;;;;;;5051496;28;20201;-62
2022/08/27 11:01:47;;;;;;;18.42;11.02;;;24.60;99.90;;;;;;5050877;28;20225;-61
2022/08/27 11:04:29;;;;;;;17.38;11.25;;;24.70;99.90;;;;;;5030436;28;20174;-61
2022/08/27 11:07:13;;;;;;;16.83;11.60;;;24.70;99.90;;;;;;5048306;28;20610;-61
2022/08/27 11:10:04;;;;;;;19.50;12.30;;;24.70;99.90;;;;;;5051481;28;20174;-60
2022/08/27 11:12:41;;;;;;;20.52;12.27;;;24.70;99.90;;;;;;5051435;28;20181;-61
2022/08/27 11:15:20;;;;;;;19.15;12.43;;;24.70;99.90;;;;;;5051523;28;20243;-60
2022/08/27 11:18:06;;;;;;;19.50;12.35;;;24.60;99.90;;;;;;5059393;28;20602;-61
2022/08/27 11:20:53;;;;;;;20.75;12.90;;;24.70;99.90;;;;;;5059196;28;20185;-60
2022/08/27 11:23:26;;;;;;;18.63;12.93;;;24.70;99.90;;;;;;5051344;28;20181;-59
2022/08/27 11:25:55;;;;;;;20.48;14.23;;;24.60;99.90;;;;;;5051433;28;20188;-60
2022/08/27 11:28:36;;;;;;;21.45;13.45;;;24.50;99.90;;;;;;5051340;28;20247;-59
2022/08/27 11:31:35;;;;;;;20.77;14.05;;;24.30;99.90;;;;;;5051306;28;20181;-59
2022/08/27 11:34:14;;;;;;;20.70;14.68;;;24.10;99.90;;;;;;5051265;28;20288;-59
2022/08/27 11:36:59;;;;;;;24.33;14.80;;;24.00;99.90;;;;;;5051287;28;20220;-59
2022/08/27 11:39:36;;;;;;;22.85;14.35;;;23.80;99.90;;;;;;5051421;28;20226;-59
2022/08/27 11:42:20;;;;;;;21.73;14.18;;;23.70;99.90;;;;;;5053771;28;20184;-59
2022/08/27 11:44:48;;;;;;;20.15;13.77;;;23.70;99.90;;;;;;5055119;28;20660;-60
2022/08/27 11:47:20;;;;;;;20.13;14.02;;;23.70;99.90;;;;;;5054998;28;20193;-60
2022/08/27 11:50:14;;;;;;;25.58;13.88;;;23.70;99.90;;;;;;5054602;28;20189;-60
2022/08/27 11:52:52;;;;;;;23.95;14.57;;;23.70;99.90;;;;;;5054371;28;20181;-60
2022/08/27 11:55:20;;;;;;;20.77;14.15;;;23.70;99.90;;;;;;5054312;28;20260;-60
2022/08/27 11:57:49;;;;;;;22.48;14.25;;;23.80;99.90;;;;;;5053448;28;20189;-60
2022/08/27 12:00:17;;;;;;;20.25;13.48;;;23.90;99.90;;;;;;5054608;28;20170;-60
2022/08/27 12:02:43;;;;;;;19.50;13.77;;;24.00;99.90;;;;;;5054609;28;20233;-61
2022/08/27 12:05:22;;;;;;;21.42;13.60;;;24.10;99.90;;;;;;5054291;28;20227;-60
2022/08/27 12:07:50;;;;;;;20.33;14.15;;;24.20;99.90;;;;;;5054466;28;20192;-61
2022/08/27 12:10:25;;;;;;;19.27;12.55;;;24.20;99.90;;;;;;5054475;28;20601;-60
2022/08/27 12:12:59;;;;;;;21.05;12.40;;;24.30;99.90;;;;;;5053910;28;20551;-60
2022/08/27 12:15:25;;;;;;;23.08;13.63;;;24.50;99.90;;;;;;5054234;28;20256;-61
2022/08/27 12:18:18;;;;;;;20.17;13.30;;;24.70;99.90;;;;;;5054437;28;20728;-61
2022/08/27 12:21:13;;;;;;;15.57;12.70;;;24.90;99.90;;;;;;5054037;28;20174;-61
2022/08/27 12:24:00;;;;;;;17.73;12.80;;;25.30;99.90;;;;;;5054099;28;20724;-61
2022/08/27 12:26:35;;;;;;;16.33;11.98;;;25.70;99.90;;;;;;5054141;28;20186;-60
2022/08/27 12:29:23;;;;;;;20.15;12.75;;;26.10;99.90;;;;;;5053771;28;20223;-61
2022/08/27 12:32:01;;;;;;;20.42;12.95;;;26.40;99.90;;;;;;5054151;28;20178;-61
2022/08/27 12:34:28;;;;;;;16.40;11.63;;;26.60;99.90;;;;;;5053344;28;20169;-60
2022/08/27 12:36:55;;;;;;;18.60;11.68;;;26.70;99.90;;;;;;5053509;28;20216;-60
2022/08/27 12:39:27;;;;;;;17.08;11.48;;;26.80;99.90;;;;;;5054027;28;20201;-60
2022/08/27 12:41:54;;;;;;;18.33;11.93;;;26.90;99.90;;;;;;5053036;28;20264;-61
2022/08/27 12:44:32;;;;;;;15.43;11.68;;;27.10;99.90;;;;;;5053567;28;20185;-60
2022/08/27 12:47:03;;;;;;;14.70;11.00;;;27.20;99.90;;;;;;5052975;28;20260;-61